Impacts TAF Board INFO
FOR SITUATIONAL AWARENESS. NOT TO BE USED FOR FLIGHT PLANNING PURPOSES.
IDs:

KMDW - Chicago/Midway Intl, IL, US

Issued at 1122 UTC 23 Jun 2018
Updated at 1346 UTC 23 Jun 2018
Potential Impact None Slight Moderate High
Time1253Z 23/14Z 23/15Z 23/16Z 23/17Z 23/18Z 23/19Z 23/20Z 23/21Z 23/22Z 23/23Z 24/00Z 24/01Z 24/02Z>>
Type OBS PRVL PRVL PRVL PRVL PRVL PRVL PRVL PRVL PRVL PRVL PRVL PRVL PRVL
VIS 10 >6 >6 >6 >6 >6 >6 >6 >6 >6 >6 >6 >6 >6
CIG 50 45 45 45 45 45 45 45 250 250 250 250 250 250
Cover BKN BKN BKN BKN BKN BKN BKN BKN BKN BKN BKN BKN BKN BKN
FltCat VFR VFR VFR VFR VFR VFR VFR VFR VFR VFR VFR VFR VFR VFR
WX -- -- -- -- -- -- -- -- -- -- -- -- -- --
WDir 30 350 350 350 350 350 350 350 40 40 40 40 40 40
WSpd 6 9 9 9 9 9 9 9 9 9 9 9 9 9
WGst -- -- -- -- -- -- -- -- -- -- -- -- -- --

Raw TAF
KMDW 231122Z 2312/2418 31005KT P6SM BKN035 OVC045
  FM231400 35009KT P6SM BKN045
  FM232100 04009KT P6SM BKN250
  FM240500 32004KT P6SM SCT250
  FM241500 03007KT P6SM SCT150


Raw METAR
KMDW 231253Z 03006KT 10SM FEW021 SCT033 BKN050 BKN250 19/15 A2974 RMK AO2 SLP066 T01890150
KMDW 231153Z 36008KT 10SM FEW021 BKN033 BKN047 18/16 A2973 RMK AO2 SLP064 60000 70073 T01830156 10183 20167 51005
KMDW 231053Z 34005KT 9SM FEW021 BKN038 BKN045 18/16 A2973 RMK AO2 SLP062 T01780156

METAR Board
Radar Display
Forecast Discussion

FOR SITUATIONAL AWARENESS. NOT TO BE USED FOR FLIGHT PLANNING PURPOSES.